createdAt,value
2018-03-04T00:00:10.979Z,48.67
2018-03-04T00:02:38.687Z,51.40
2018-03-04T00:05:07.471Z,51.20
2018-03-04T00:07:35.491Z,53.55
2018-03-04T00:10:03.464Z,52.90
2018-03-04T00:12:31.499Z,51.87
2018-03-04T00:14:59.187Z,50.20
2018-03-04T00:17:27.101Z,51.87
2018-03-04T00:19:56.060Z,52.37
2018-03-04T00:22:36.337Z,44.30
2018-03-04T00:25:13.408Z,53.40
2018-03-04T00:27:44.314Z,50.20
2018-03-04T00:30:12.220Z,55.97
2018-03-04T00:32:42.115Z,50.90
2018-03-04T00:35:10.646Z,52.00
2018-03-04T00:37:39.344Z,53.70
2018-03-04T00:40:10.982Z,50.33
2018-03-04T00:42:39.239Z,52.53
2018-03-04T00:45:07.920Z,50.00
2018-03-04T00:47:35.704Z,49.00
2018-03-04T00:50:03.989Z,51.10
2018-03-04T00:52:31.711Z,52.73
2018-03-04T00:55:00.313Z,53.67
2018-03-04T00:57:29.979Z,51.53
2018-03-04T00:59:57.684Z,50.77
2018-03-04T01:02:25.549Z,54.83
2018-03-04T01:04:53.430Z,54.27
2018-03-04T01:07:21.607Z,52.97
2018-03-04T01:09:49.523Z,53.87
2018-03-04T01:12:19.232Z,53.20
2018-03-04T01:14:47.123Z,52.37
2018-03-04T01:17:15.051Z,52.67
2018-03-04T01:19:42.808Z,53.70
2018-03-04T01:22:10.677Z,54.63
2018-03-04T01:24:38.435Z,51.27
2018-03-04T01:27:06.077Z,53.90
2018-03-04T01:29:34.786Z,51.10
2018-03-04T01:32:02.612Z,51.80
2018-03-04T01:34:30.330Z,50.50
2018-03-04T01:36:58.272Z,51.20
2018-03-04T01:39:25.960Z,51.67
2018-03-04T01:41:54.424Z,53.03
2018-03-04T01:44:23.070Z,51.20
2018-03-04T01:46:51.583Z,51.60
2018-03-04T01:49:20.024Z,50.83
2018-03-04T01:51:52.764Z,49.20
2018-03-04T01:54:20.435Z,51.70
2018-03-04T01:56:49.794Z,52.90
2018-03-04T01:59:17.678Z,51.90
2018-03-04T02:01:45.564Z,50.53
2018-03-04T02:04:13.642Z,48.40
2018-03-04T02:06:42.209Z,51.30
2018-03-04T02:09:09.934Z,51.60
2018-03-04T02:11:37.649Z,49.17
2018-03-04T02:14:06.129Z,48.37
2018-03-04T02:16:34.187Z,49.60
2018-03-04T02:19:02.966Z,50.50
2018-03-04T02:21:30.698Z,52.60
2018-03-04T02:23:58.367Z,52.63
2018-03-04T02:26:26.055Z,50.03
2018-03-04T02:28:54.835Z,48.77
2018-03-04T02:31:22.596Z,49.60
2018-03-04T02:33:50.389Z,51.60
2018-03-04T02:36:18.137Z,50.90
2018-03-04T02:38:46.583Z,50.50
2018-03-04T02:41:14.302Z,48.77
2018-03-04T02:43:42.958Z,50.25
2018-03-04T02:46:10.708Z,47.60
2018-03-04T02:48:38.380Z,51.17
2018-03-04T02:51:07.267Z,46.90
2018-03-04T02:53:35.425Z,50.13
2018-03-04T02:56:03.102Z,49.97
2018-03-04T02:58:31.965Z,50.40
2018-03-04T03:00:59.675Z,49.60
2018-03-04T03:03:28.220Z,48.50
2018-03-04T03:05:56.054Z,50.53
2018-03-04T03:08:24.528Z,47.90
2018-03-04T03:10:52.254Z,47.87
2018-03-04T03:13:20.709Z,48.97
2018-03-04T03:15:48.427Z,47.20
2018-03-04T03:18:16.164Z,47.87
2018-03-04T03:20:44.104Z,48.90
2018-03-04T03:23:15.167Z,49.30
2018-03-04T03:25:43.003Z,46.87
2018-03-04T03:28:10.814Z,47.27
2018-03-04T03:30:38.508Z,49.40
2018-03-04T03:33:06.938Z,36.50
2018-03-04T03:35:34.759Z,47.50
2018-03-04T03:38:02.483Z,48.50
2018-03-04T03:40:31.247Z,46.27
2018-03-04T03:42:59.240Z,44.90
2018-03-04T03:45:27.003Z,43.53
2018-03-04T03:47:54.757Z,46.50
2018-03-04T03:50:23.152Z,48.07
2018-03-04T03:52:51.256Z,47.33
2018-03-04T03:55:19.895Z,47.13
2018-03-04T03:57:47.965Z,45.50
2018-03-04T04:00:15.775Z,47.77
2018-03-04T04:02:43.573Z,46.03
2018-03-04T04:05:12.055Z,49.67
2018-03-04T04:07:39.858Z,47.42
2018-03-04T04:10:07.690Z,47.83
2018-03-04T04:12:35.429Z,49.33
2018-03-04T04:15:03.114Z,46.33
2018-03-04T04:17:31.638Z,48.00
2018-03-04T04:20:00.301Z,46.07
2018-03-04T04:22:28.845Z,46.97
2018-03-04T04:24:56.418Z,46.43
2018-03-04T04:27:24.192Z,47.20
2018-03-04T04:29:51.877Z,48.07
2018-03-04T04:32:19.858Z,44.30
2018-03-04T04:34:47.847Z,45.60
2018-03-04T04:37:15.696Z,47.87
2018-03-04T04:39:43.586Z,47.20
2018-03-04T04:42:12.921Z,48.97
2018-03-04T04:44:40.892Z,45.60
2018-03-04T04:47:08.660Z,46.90
2018-03-04T04:52:14.529Z,46.27
2018-03-04T04:54:42.409Z,46.40
2018-03-04T04:57:11.032Z,45.57
2018-03-04T04:59:40.285Z,46.07
2018-03-04T05:02:09.150Z,49.17
2018-03-04T05:04:38.091Z,46.87
2018-03-04T05:07:06.521Z,47.57
2018-03-04T05:09:34.330Z,47.60
2018-03-04T05:12:03.481Z,49.00
2018-03-04T05:14:31.276Z,48.20
2018-03-04T05:17:00.452Z,48.37
2018-03-04T05:19:29.120Z,50.90
2018-03-04T05:22:00.112Z,50.20
2018-03-04T05:24:28.250Z,49.27
2018-03-04T05:26:55.930Z,49.08
2018-03-04T05:29:27.767Z,46.30
2018-03-04T05:31:59.337Z,51.53
2018-03-04T05:34:28.321Z,51.27
2018-03-04T05:36:56.211Z,50.10
2018-03-04T05:39:24.900Z,51.57
2018-03-04T05:41:53.417Z,49.40
2018-03-04T05:44:21.349Z,50.17
2018-03-04T05:46:50.466Z,47.77
2018-03-04T05:49:18.452Z,51.00
2018-03-04T05:51:48.108Z,47.30
2018-03-04T05:54:16.745Z,50.22
2018-03-04T05:56:44.518Z,49.80
2018-03-04T05:59:15.063Z,45.50
2018-03-04T06:01:42.753Z,47.30
2018-03-04T06:04:11.110Z,33.57
2018-03-04T06:06:39.054Z,48.57
2018-03-04T06:09:07.734Z,45.53
2018-03-04T06:11:36.265Z,44.23
2018-03-04T06:14:04.760Z,46.13
2018-03-04T06:16:32.437Z,47.63
2018-03-04T06:19:00.128Z,45.47
2018-03-04T06:21:27.796Z,47.07
2018-03-04T06:23:55.517Z,46.00
2018-03-04T06:26:23.419Z,44.93
2018-03-04T06:28:51.170Z,46.40
2018-03-04T06:31:18.828Z,45.37
2018-03-04T06:33:46.655Z,42.80
2018-03-04T06:36:15.068Z,45.03
2018-03-04T06:38:42.762Z,44.20
2018-03-04T06:41:10.585Z,43.57
2018-03-04T06:43:39.145Z,43.60
2018-03-04T06:46:08.200Z,39.80
2018-03-04T06:48:37.040Z,43.30
2018-03-04T06:51:04.788Z,42.83
2018-03-04T06:53:32.532Z,39.73
2018-03-04T06:56:00.403Z,39.03
2018-03-04T06:58:28.180Z,40.90
2018-03-04T07:00:55.879Z,41.90
2018-03-04T07:03:23.559Z,41.07
2018-03-04T07:05:52.151Z,41.43
2018-03-04T07:08:20.048Z,40.73
2018-03-04T07:10:47.914Z,39.13
2018-03-04T07:13:16.483Z,41.07
2018-03-04T07:15:44.458Z,36.40
2018-03-04T07:18:12.212Z,39.93
2018-03-04T07:20:39.924Z,39.07
2018-03-04T07:23:08.108Z,37.10
2018-03-04T07:25:35.810Z,37.53
2018-03-04T07:28:03.588Z,35.77
2018-03-04T07:30:31.431Z,40.20
2018-03-04T07:32:59.109Z,36.10
2018-03-04T07:35:26.804Z,36.60
2018-03-04T07:37:56.031Z,38.50
2018-03-04T07:40:23.725Z,38.30
2018-03-04T07:42:52.563Z,36.90
2018-03-04T07:45:20.259Z,37.50
2018-03-04T07:47:48.020Z,33.63
2018-03-04T07:50:15.817Z,35.37
2018-03-04T07:52:43.599Z,35.50
2018-03-04T07:55:11.307Z,34.57
2018-03-04T07:57:39.736Z,34.90
2018-03-04T08:00:20.230Z,33.30
2018-03-04T08:02:47.978Z,34.80
2018-03-04T08:05:15.636Z,34.57
2018-03-04T08:07:43.303Z,35.23
2018-03-04T08:10:11.749Z,31.67
2018-03-04T08:12:39.386Z,35.80
2018-03-04T08:15:07.838Z,31.97
2018-03-04T08:17:38.327Z,33.80
2018-03-04T08:20:06.878Z,33.03
2018-03-04T08:22:35.228Z,33.80
2018-03-04T08:25:14.716Z,32.63
2018-03-04T08:27:54.987Z,29.47
2018-03-04T08:30:23.941Z,31.00
2018-03-04T08:32:51.647Z,31.90
2018-03-04T08:35:20.306Z,31.17
2018-03-04T08:37:48.195Z,30.43
2018-03-04T08:40:16.001Z,29.90
2018-03-04T08:42:43.734Z,28.70
2018-03-04T08:45:11.555Z,28.70
2018-03-04T08:47:39.338Z,28.83
2018-03-04T08:50:07.800Z,27.10
2018-03-04T08:52:36.215Z,25.00
2018-03-04T08:55:04.218Z,27.40
2018-03-04T08:57:34.688Z,27.50
2018-03-04T09:00:02.521Z,26.73
2018-03-04T09:02:31.094Z,25.83
2018-03-04T09:05:01.052Z,28.00
2018-03-04T09:07:28.935Z,27.40
2018-03-04T09:09:56.714Z,25.70
2018-03-04T09:12:24.691Z,27.13
2018-03-04T09:14:54.940Z,25.10
2018-03-04T09:17:23.210Z,25.10
2018-03-04T09:19:50.890Z,26.17
2018-03-04T09:22:18.650Z,25.40
2018-03-04T09:24:47.096Z,25.47
2018-03-04T09:27:14.898Z,27.10
2018-03-04T09:29:43.521Z,26.43
2018-03-04T09:32:14.434Z,25.77
2018-03-04T09:34:42.117Z,26.73
2018-03-04T09:37:12.247Z,26.33
2018-03-04T09:39:39.972Z,25.50
2018-03-04T09:42:07.717Z,26.30
2018-03-04T09:44:35.412Z,24.73
2018-03-04T09:47:03.159Z,25.13
2018-03-04T09:49:32.676Z,25.30
2018-03-04T09:52:01.204Z,24.60
2018-03-04T09:54:28.901Z,24.37
2018-03-04T09:56:57.379Z,27.20
2018-03-04T09:59:29.089Z,24.00
2018-03-04T10:02:01.504Z,25.20
2018-03-04T10:04:32.955Z,22.73
2018-03-04T10:07:08.795Z,22.90
2018-03-04T10:09:42.171Z,26.00
2018-03-04T10:12:12.218Z,24.03
2018-03-04T10:17:31.399Z,22.87
2018-03-04T10:20:00.994Z,24.00
2018-03-04T10:22:35.313Z,21.00
2018-03-04T10:25:12.791Z,26.80
2018-03-04T10:27:46.775Z,28.40
2018-03-04T10:30:17.649Z,24.53
2018-03-04T10:32:45.388Z,28.13
2018-03-04T10:35:14.323Z,28.30
2018-03-04T10:37:42.222Z,28.20
2018-03-04T10:40:11.006Z,26.60
2018-03-04T10:42:40.271Z,27.50
2018-03-04T10:45:11.241Z,27.37
2018-03-04T10:47:39.047Z,26.50
2018-03-04T10:50:06.765Z,27.53
2018-03-04T10:52:35.445Z,24.97
2018-03-04T10:55:05.757Z,25.30
2018-03-04T10:57:33.545Z,28.83
2018-03-04T11:00:02.139Z,22.90
2018-03-04T11:02:36.333Z,26.40
2018-03-04T11:05:05.531Z,23.40
2018-03-04T11:07:33.451Z,26.73
2018-03-04T11:10:01.233Z,25.70
2018-03-04T11:12:30.150Z,25.30
2018-03-04T11:14:58.381Z,24.70
2018-03-04T11:17:26.470Z,26.50
2018-03-04T11:19:54.621Z,25.13
2018-03-04T11:22:27.097Z,25.53
2018-03-04T11:24:54.808Z,23.80
2018-03-04T11:27:22.540Z,24.60
2018-03-04T11:29:50.427Z,25.37
2018-03-04T11:32:19.646Z,24.00
2018-03-04T11:34:47.424Z,23.80
2018-03-04T11:37:16.682Z,23.87
2018-03-04T11:39:44.807Z,24.13
2018-03-04T11:42:13.347Z,22.67
2018-03-04T11:44:41.060Z,23.43
2018-03-04T11:47:08.826Z,21.33
2018-03-04T11:49:36.657Z,22.70
2018-03-04T11:52:11.414Z,22.67
2018-03-04T11:54:40.072Z,23.17
2018-03-04T11:57:17.445Z,21.83
2018-03-04T11:59:45.263Z,23.10
2018-03-04T12:02:14.357Z,21.30
2018-03-04T12:04:42.021Z,21.83
2018-03-04T12:07:11.136Z,22.10
2018-03-04T12:09:38.939Z,20.87
2018-03-04T12:12:06.794Z,22.20
2018-03-04T12:14:34.672Z,19.73
2018-03-04T12:17:02.598Z,21.03
2018-03-04T12:19:32.840Z,20.80
2018-03-04T12:22:00.704Z,20.77
2018-03-04T12:24:28.447Z,21.00
2018-03-04T12:26:57.807Z,21.90
2018-03-04T12:29:27.261Z,21.37
2018-03-04T12:31:55.231Z,20.27
2018-03-04T12:34:23.069Z,20.03
2018-03-04T12:36:50.784Z,19.90
2018-03-04T12:39:19.767Z,21.33
2018-03-04T12:41:47.467Z,20.80
2018-03-04T12:44:15.219Z,21.43
2018-03-04T12:46:42.981Z,19.43
2018-03-04T12:49:10.953Z,19.70
2018-03-04T12:51:39.766Z,19.97
2018-03-04T12:54:07.564Z,18.60
2018-03-04T12:56:35.307Z,18.30
2018-03-04T12:59:03.911Z,19.07
2018-03-04T13:01:32.395Z,16.30
2018-03-04T13:04:00.199Z,19.97
2018-03-04T13:06:28.036Z,19.17
2018-03-04T13:08:56.578Z,18.50
2018-03-04T13:11:24.343Z,20.00
2018-03-04T13:13:52.772Z,20.10
2018-03-04T13:16:20.517Z,18.20
2018-03-04T13:18:48.193Z,18.77
2018-03-04T13:21:16.108Z,17.53
2018-03-04T13:23:47.778Z,17.57
2018-03-04T13:26:15.609Z,17.93
2018-03-04T13:28:44.150Z,18.10
2018-03-04T13:31:11.942Z,17.93
2018-03-04T13:33:41.306Z,18.03
2018-03-04T13:36:09.685Z,18.10
2018-03-04T13:38:37.675Z,18.10
2018-03-04T13:41:05.474Z,18.40
2018-03-04T13:43:35.384Z,18.10
2018-03-04T13:46:03.135Z,17.60
2018-03-04T13:48:50.995Z,18.40
2018-03-04T13:51:22.371Z,18.17
2018-03-04T13:53:50.155Z,17.70
2018-03-04T13:56:17.859Z,18.23
2018-03-04T13:58:45.705Z,18.17
2018-03-04T14:01:14.237Z,16.67
2018-03-04T14:03:42.141Z,16.40
2018-03-04T14:06:09.837Z,17.13
2018-03-04T14:08:37.806Z,17.20
2018-03-04T14:11:06.129Z,16.70
2018-03-04T14:13:33.909Z,17.47
2018-03-04T14:16:03.144Z,17.43
2018-03-04T14:18:32.223Z,15.60
2018-03-04T14:21:00.230Z,16.70
2018-03-04T14:23:40.111Z,16.87
2018-03-04T14:26:07.957Z,16.40
2018-03-04T14:28:37.533Z,16.60
2018-03-04T14:31:05.330Z,16.97
2018-03-04T14:33:34.081Z,16.33
2018-03-04T14:36:02.308Z,17.00
2018-03-04T14:38:30.145Z,16.70
2018-03-04T14:41:01.694Z,17.37
2018-03-04T14:43:29.475Z,15.70
2018-03-04T14:46:00.569Z,15.63
2018-03-04T14:48:29.020Z,15.97
2018-03-04T14:50:59.777Z,15.93
2018-03-04T14:53:28.127Z,16.00
2018-03-04T14:55:56.025Z,15.97
2018-03-04T14:58:24.484Z,17.57
2018-03-04T15:00:54.016Z,15.57
2018-03-04T15:03:29.406Z,15.53
2018-03-04T15:05:57.429Z,15.20
2018-03-04T15:08:26.880Z,16.30
2018-03-04T15:10:55.646Z,16.20
2018-03-04T15:13:23.405Z,16.03
2018-03-04T15:15:51.304Z,16.77
2018-03-04T15:18:26.284Z,14.97
2018-03-04T15:20:56.315Z,16.20
2018-03-04T15:23:24.402Z,14.63
2018-03-04T15:25:53.749Z,15.20
2018-03-04T15:28:23.064Z,14.77
2018-03-04T15:30:52.588Z,14.10
2018-03-04T15:33:24.963Z,15.17
2018-03-04T15:35:53.334Z,13.00
2018-03-04T15:38:25.725Z,14.70
2018-03-04T15:40:57.370Z,13.30
2018-03-04T15:43:31.577Z,14.60
2018-03-04T15:46:01.927Z,16.37
2018-03-04T15:48:37.571Z,13.83
2018-03-04T15:51:05.382Z,14.07
2018-03-04T15:53:33.253Z,16.37
2018-03-04T15:56:00.991Z,14.20
2018-03-04T15:58:28.854Z,14.27
2018-03-04T16:00:56.694Z,14.20
2018-03-04T16:03:25.237Z,15.23
2018-03-04T16:05:53.030Z,15.30
2018-03-04T16:08:21.171Z,14.97
2018-03-04T16:10:52.224Z,15.40
2018-03-04T16:16:05.245Z,16.57
2018-03-04T16:18:33.185Z,16.13
2018-03-04T16:21:03.238Z,15.37
2018-03-04T16:23:32.035Z,15.17
2018-03-04T16:26:01.594Z,15.47
2018-03-04T16:28:29.622Z,17.20
2018-03-04T16:30:59.237Z,16.90
2018-03-04T16:33:30.313Z,16.07
2018-03-04T16:35:59.106Z,15.23
2018-03-04T16:38:27.745Z,19.13
2018-03-04T16:40:56.448Z,18.80
2018-03-04T16:43:24.953Z,18.00
2018-03-04T16:45:52.814Z,19.90
2018-03-04T16:48:21.507Z,22.23
2018-03-04T16:50:49.288Z,22.67
2018-03-04T16:53:17.949Z,24.23
2018-03-04T16:55:45.756Z,21.63
2018-03-04T16:58:14.172Z,22.53
2018-03-04T17:00:43.104Z,23.30
2018-03-04T17:03:12.008Z,23.93
2018-03-04T17:05:39.983Z,23.33
2018-03-04T17:08:09.882Z,24.00
2018-03-04T17:10:38.469Z,23.20
2018-03-04T17:13:06.305Z,23.77
2018-03-04T17:15:35.178Z,25.07
2018-03-04T17:18:03.025Z,25.60
2018-03-04T17:20:30.830Z,23.80
2018-03-04T17:22:58.537Z,24.40
2018-03-04T17:25:26.995Z,25.63
2018-03-04T17:27:54.759Z,26.43
2018-03-04T17:30:22.633Z,25.53
2018-03-04T17:32:52.094Z,27.13
2018-03-04T17:35:19.839Z,26.57
2018-03-04T17:37:47.693Z,27.47
2018-03-04T17:40:15.397Z,25.90
2018-03-04T17:42:43.211Z,27.10
2018-03-04T17:45:10.931Z,27.90
2018-03-04T17:47:38.729Z,28.30
2018-03-04T17:50:07.518Z,29.77
2018-03-04T17:52:36.044Z,28.97
2018-03-04T17:55:03.868Z,28.60
2018-03-04T17:57:39.212Z,29.37
2018-03-04T18:00:08.168Z,30.80
2018-03-04T18:02:36.750Z,28.27
2018-03-04T18:07:45.506Z,32.40
2018-03-04T18:10:15.308Z,30.10
2018-03-04T18:12:44.682Z,29.80
2018-03-04T18:17:49.078Z,30.10
2018-03-04T18:20:17.596Z,29.70
2018-03-04T18:22:46.053Z,30.67
2018-03-04T18:25:13.921Z,30.83
2018-03-04T18:27:42.511Z,33.17
2018-03-04T18:30:11.128Z,30.87
2018-03-04T18:32:40.781Z,32.43
2018-03-04T18:35:09.037Z,31.70
2018-03-04T18:37:38.543Z,31.97
2018-03-04T18:40:09.238Z,33.47
2018-03-04T18:42:39.528Z,32.60
2018-03-04T18:45:11.832Z,33.20
2018-03-04T18:47:43.623Z,32.87
2018-03-04T18:50:11.494Z,31.63
2018-03-04T18:52:40.044Z,31.80
2018-03-04T18:55:07.819Z,34.87
2018-03-04T18:57:35.638Z,33.93
2018-03-04T19:00:03.653Z,33.10
2018-03-04T19:02:31.753Z,32.80
2018-03-04T19:05:00.382Z,32.77
2018-03-04T19:07:28.330Z,33.63
2018-03-04T19:09:56.351Z,33.60
2018-03-04T19:12:26.844Z,32.57
2018-03-04T19:15:00.938Z,33.50
2018-03-04T19:17:29.892Z,32.60
2018-03-04T19:19:58.214Z,33.97
2018-03-04T19:22:30.025Z,33.87
2018-03-04T19:24:58.033Z,33.40
2018-03-04T19:27:25.742Z,33.33
2018-03-04T19:29:56.124Z,35.20
2018-03-04T19:32:39.927Z,33.17
2018-03-04T19:35:08.828Z,33.40
2018-03-04T19:40:15.327Z,32.07
2018-03-04T19:42:44.353Z,33.60
2018-03-04T19:45:13.947Z,35.10
2018-03-04T19:47:42.394Z,33.00
2018-03-04T19:50:10.532Z,32.93
2018-03-04T19:52:45.919Z,33.53
2018-03-04T19:55:15.758Z,32.27
2018-03-04T19:57:47.518Z,34.23
2018-03-04T20:00:17.964Z,33.40
2018-03-04T20:02:54.151Z,36.30
2018-03-04T20:05:23.514Z,35.00
2018-03-04T20:07:51.527Z,32.90
2018-03-04T20:10:20.478Z,32.20
2018-03-04T20:12:53.027Z,33.87
2018-03-04T20:15:20.854Z,31.27
2018-03-04T20:17:48.973Z,31.27
2018-03-04T20:20:18.647Z,32.10
2018-03-04T20:22:53.086Z,33.13
2018-03-04T20:25:21.113Z,31.30
2018-03-04T20:27:52.670Z,31.20
2018-03-04T20:30:23.392Z,31.10
2018-03-04T20:32:51.140Z,31.67
2018-03-04T20:35:25.120Z,31.60
2018-03-04T20:37:53.160Z,29.77
2018-03-04T20:40:21.839Z,29.60
2018-03-04T20:42:49.935Z,29.83
2018-03-04T20:45:19.828Z,30.80
2018-03-04T20:47:49.704Z,29.27
2018-03-04T20:52:52.667Z,28.73
2018-03-04T20:55:20.460Z,26.87
2018-03-04T20:57:48.451Z,30.03
2018-03-04T21:00:16.368Z,31.00
2018-03-04T21:02:44.656Z,29.87
2018-03-04T21:05:12.937Z,27.50
2018-03-04T21:07:40.923Z,29.43
2018-03-04T21:10:09.519Z,29.17
2018-03-04T21:12:37.425Z,28.00
2018-03-04T21:15:06.490Z,29.43
2018-03-04T21:17:34.271Z,28.93
2018-03-04T21:20:02.490Z,28.73
2018-03-04T21:22:30.376Z,29.50
2018-03-04T21:24:59.769Z,27.70
2018-03-04T21:27:28.225Z,27.40
2018-03-04T21:29:57.018Z,27.87
2018-03-04T21:32:26.869Z,26.40
2018-03-04T21:34:57.561Z,25.60
2018-03-04T21:37:26.823Z,24.97
2018-03-04T21:39:57.786Z,25.30
2018-03-04T21:42:26.438Z,24.70
2018-03-04T21:44:54.398Z,18.80
2018-03-04T21:47:22.525Z,19.80
2018-03-04T21:49:50.826Z,16.93
2018-03-04T21:52:18.619Z,17.00
2018-03-04T21:54:46.586Z,15.73
2018-03-04T21:57:15.353Z,14.17
2018-03-04T21:59:48.884Z,14.77
2018-03-04T22:02:16.624Z,15.10
2018-03-04T22:04:45.218Z,14.17
2018-03-04T22:07:13.106Z,15.43
2018-03-04T22:09:41.977Z,11.80
2018-03-04T22:12:10.250Z,11.87
2018-03-04T22:14:56.231Z,10.00
2018-03-04T22:17:26.333Z,8.13
2018-03-04T22:19:54.145Z,7.67
2018-03-04T22:22:23.115Z,6.83
2018-03-04T22:24:51.895Z,6.83
2018-03-04T22:27:19.738Z,6.50
2018-03-04T22:29:47.563Z,6.60
2018-03-04T22:32:15.370Z,6.70
2018-03-04T22:34:43.126Z,6.60
2018-03-04T22:37:12.628Z,6.20
2018-03-04T22:39:40.248Z,5.47
2018-03-04T22:42:09.522Z,5.50
2018-03-04T22:44:38.376Z,6.00
2018-03-04T22:47:07.905Z,5.83
2018-03-04T22:49:35.607Z,5.40
2018-03-04T22:52:03.487Z,5.27
2018-03-04T22:54:32.008Z,6.30
2018-03-04T22:57:00.672Z,6.30
2018-03-04T22:59:28.561Z,5.33
2018-03-04T23:01:57.434Z,5.60
2018-03-04T23:04:25.194Z,5.20
2018-03-04T23:06:52.903Z,4.20
2018-03-04T23:09:21.672Z,4.73
2018-03-04T23:11:49.382Z,3.10
2018-03-04T23:14:18.046Z,3.60
2018-03-04T23:16:45.703Z,3.40
2018-03-04T23:19:13.423Z,3.40
2018-03-04T23:21:41.137Z,3.00
2018-03-04T23:24:08.951Z,3.33
2018-03-04T23:26:36.748Z,3.30
2018-03-04T23:29:05.235Z,3.60
2018-03-04T23:31:32.992Z,3.37
2018-03-04T23:34:00.714Z,3.07
2018-03-04T23:36:29.485Z,3.17
2018-03-04T23:38:58.032Z,3.40
2018-03-04T23:41:26.766Z,3.70
2018-03-04T23:43:54.489Z,3.03
2018-03-04T23:46:22.392Z,3.23
2018-03-04T23:48:50.090Z,3.70
2018-03-04T23:51:17.791Z,2.87
2018-03-04T23:53:45.499Z,3.10
2018-03-04T23:56:13.799Z,3.13
2018-03-04T23:58:41.692Z,2.60
